LS Concorde — ZDHJ7 — position and weather

sailwx.info

Track history (hours):
 
Tides and Currents Weather Stations Pressure Air Temp Water Temp Dewpoint Dewpoint Depression Visibility Wind Speed Wind Dir Waves Ship Positions

LS Concorde

Last reported at 2014-Sep-18 18:33 UTC. Time now 2014-Sep-18 19:45 UTC.
Position N 54°35' E 010°51'.

Length 99 m; draft 6 m.

Type: Tanker. MMSI: 236329000.

Date/timePositionNaut miles runAvg speedWind from/ knotsBaromVisibWave heightAir tempDewpointWater temp
2014-Sep-18 18:33N 54°35' E 010°51'1312.6
2014-Sep-18 17:33N 54°35' E 011°13'1312.7
2014-Sep-18 16:33N 54°30' E 011°33'1312.6
2014-Sep-18 15:33N 54°26' E 011°54'1111.2
2014-Sep-18 14:33N 54°31' E 012°12'1212.1
2014-Sep-18 13:33N 54°41' E 012°24'1312.7
2014-Sep-18 12:33N 54°48' E 012°43'1212.6
2014-Sep-18 11:33N 54°52' E 013°03'1312.9
2014-Sep-18 10:33N 54°56' E 013°25'1312.6
2014-Sep-18 09:33N 55°01' E 013°45'1212.4
2014-Sep-18 08:33N 55°05' E 014°05'1212.4
2014-Sep-18 07:33N 55°15' E 014°19'1312.8
2014-Sep-18 06:33N 55°25' E 014°33'1212.4
2014-Sep-18 05:33N 55°31' E 014°51'1212.1
2014-Sep-18 04:33N 55°37' E 015°10'1212.1
2014-Sep-18 03:33N 55°43' E 015°29'1312.6
2014-Sep-18 02:33N 55°50' E 015°48'1312.9
2014-Sep-18 01:33N 55°56' E 016°08'3112.5
2014-Sep-17 23:04N 56°13' E 016°54'1012.5
2014-Sep-17 22:15N 56°19' E 017°09'912.6
2014-Sep-17 21:33N 56°24' E 017°22'1312.5
2014-Sep-17 20:33N 56°32' E 017°40'1312.5
2014-Sep-17 19:29N 56°40' E 017°59'1712.7
2014-Sep-17 18:08N 56°51' E 018°24'712.8
2014-Sep-17 17:33N 56°55' E 018°35'1312.7
2014-Sep-17 16:34N 57°03' E 018°53'1812.5
2014-Sep-17 15:08N 57°14' E 019°20'130 2.6
2014-Sep-15 14:05N 57°28' E 023°19'612.0
2014-Sep-15 13:32N 57°32' E 023°10'14110.0
2014-Sep-14 23:28N 56°59' E 018°57'1111.4
2014-Sep-14 22:32N 56°52' E 018°42'9810.9
2014-Sep-14 13:32N 55°54' E 016°18'4210.6
2014-Sep-14 09:33N 55°34' E 015°12'10 9.8
2014-Sep-14 08:33N 55°29' E 014°57'9 8.8
2014-Sep-14 07:33N 55°25' E 014°43'9 8.9
2014-Sep-14 06:33N 55°19' E 014°32'9 9.3
2014-Sep-14 05:33N 55°11' E 014°22'19 9.6
2014-Sep-14 03:33N 55°11' E 013°49'2311.0
2014-Sep-14 01:30N 55°13' E 013°09'26 6.5
2014-Sep-13 21:33N 55°38' E 013°01'0 0.1
2014-Sep-13 20:29N 55°38' E 013°01'0 0.0
2014-Sep-13 19:32N 55°38' E 013°01'0 0.0
2014-Sep-13 18:29N 55°38' E 013°01'0 0.0
2014-Sep-13 17:32N 55°38' E 013°01'0 0.0
2014-Sep-13 16:29N 55°38' E 013°01'0 0.0
2014-Sep-13 15:32N 55°38' E 013°01'0 0.0
2014-Sep-13 14:33N 55°38' E 013°01'0 0.0
2014-Sep-13 13:33N 55°38' E 013°01'0 0.0
2014-Sep-13 12:33N 55°38' E 013°01'0 0.0
2014-Sep-13 11:33N 55°38' E 013°01'0 0.0
2014-Sep-13 10:33N 55°38' E 013°01'0 0.0
2014-Sep-13 09:33N 55°38' E 013°01'0 0.0
2014-Sep-13 08:33N 55°38' E 013°01'0 0.0
2014-Sep-13 07:33N 55°38' E 013°01'0 0.0
2014-Sep-13 06:33N 55°38' E 013°01'0 0.0
2014-Sep-13 05:33N 55°38' E 013°01'0 0.3
2014-Sep-13 04:33N 55°38' E 013°01'4 3.8
2014-Sep-13 03:33N 55°41' E 012°57'0 0.0
2014-Sep-13 02:33N 55°41' E 012°57'0 0.0
2014-Sep-13 01:33N 55°41' E 012°57'0 0.0
2014-Sep-13 00:33N 55°41' E 012°57'0 0.0
2014-Sep-12 23:34N 55°41' E 012°57'0 0.0
2014-Sep-12 22:33N 55°41' E 012°57'0 0.0
2014-Sep-12 21:34N 55°41' E 012°57'0 0.1
2014-Sep-12 20:33N 55°41' E 012°57'1110.8
2014-Sep-12 19:33N 55°50' E 012°46'1212.4
2014-Sep-12 18:33N 56°02' E 012°39'1010.2
2014-Sep-12 17:33N 56°09' E 012°26'8 7.9
2014-Sep-12 16:33N 56°13' E 012°14'8 7.8
2014-Sep-12 15:33N 56°18' E 012°03'8 7.7
2014-Sep-12 14:33N 56°25' E 011°60'1010.2
2014-Sep-12 13:33N 56°35' E 011°56'2311.6
2014-Sep-12 11:33N 56°57' E 011°44'1211.6
2014-Sep-12 10:33N 57°08' E 011°37'1212.2
2014-Sep-12 09:33N 57°20' E 011°29'1312.3
2014-Sep-12 08:32N 57°30' E 011°16'1212.6
2014-Sep-12 07:33N 57°39' E 010°60'1212.2
2014-Sep-12 06:33N 57°48' E 010°44'1212.4
2014-Sep-12 05:33N 57°47' E 010°21'1413.1
2014-Sep-12 04:31N 57°42' E 009°57'1213.1
2014-Sep-12 03:33N 57°38' E 009°35'7512.5
2014-Sep-11 21:33N 56°55' E 007°40'1312.8
2014-Sep-11 20:32N 56°44' E 007°28'1312.9
2014-Sep-11 19:33N 56°33' E 007°17'17512.5
2014-Sep-11 05:33N 53°59' E 004°50'2311.5
2014-Sep-11 03:31N 53°36' E 004°50'9 9.6
2014-Sep-11 02:33N 53°27' E 004°44'2110.3
2014-Sep-11 00:33N 53°08' E 004°29'1010.3
2014-Sep-10 23:33N 52°60' E 004°20'1010.2
2014-Sep-10 22:33N 52°50' E 004°14'1010.1
2014-Sep-10 21:33N 52°43' E 004°02'1010.2
2014-Sep-10 20:33N 52°37' E 003°48'1110.3
2014-Sep-10 19:31N 52°28' E 003°38'5111.5
2014-Sep-10 15:03N 51°38' E 003°22'713.9
2014-Sep-10 14:33N 51°31' E 003°26'1010.4
2014-Sep-10 13:34N 51°26' E 003°41'9 8.9
2014-Sep-10 12:33N 51°21' E 003°52'7 7.0
2014-Sep-10 11:34N 51°24' E 004°02'7 7.4
2014-Sep-10 10:34N 51°22' E 004°13'2 2.5
2014-Sep-10 09:33N 51°21' E 004°17'0 0.0
2014-Sep-10 08:34N 51°21' E 004°17'2 1.9
2014-Sep-10 07:33N 51°19' E 004°19'4 4.0
2014-Sep-10 06:31N 51°15' E 004°22'0 0.0
2014-Sep-10 05:31N 51°15' E 004°22'0 0.0
2014-Sep-10 04:31N 51°15' E 004°22'0 0.0
2014-Sep-10 03:28N 51°15' E 004°22'0 0.0
2014-Sep-10 02:31N 51°15' E 004°22'0 0.0
2014-Sep-10 01:28N 51°15' E 004°22'0 0.0
2014-Sep-10 00:31N 51°15' E 004°22'0 0.0
2014-Sep-09 23:31N 51°15' E 004°22'0 0.0
2014-Sep-09 22:31N 51°15' E 004°22'0 0.0
2014-Sep-09 21:31N 51°15' E 004°22'0 0.0
2014-Sep-09 20:31N 51°15' E 004°22'0 0.0
2014-Sep-09 19:31N 51°15' E 004°22'0 0.0
2014-Sep-09 18:31N 51°15' E 004°22'0 0.0
2014-Sep-09 17:31N 51°15' E 004°22'0 0.0
2014-Sep-09 16:31N 51°15' E 004°22'0 0.0
2014-Sep-09 15:13N 51°15' E 004°22'0 0.0
2014-Sep-09 14:31N 51°15' E 004°22'0 0.0
2014-Sep-09 13:31N 51°15' E 004°22'0 0.0
2014-Sep-09 12:31N 51°15' E 004°22'0 0.0
2014-Sep-09 11:31N 51°15' E 004°22'0 0.0
2014-Sep-09 10:31N 51°15' E 004°22'0 0.0
2014-Sep-09 09:31N 51°15' E 004°22'0 0.1
2014-Sep-09 08:33N 51°15' E 004°22'6 6.1
2014-Sep-09 07:33N 51°21' E 004°17'0 0.2
2014-Sep-09 06:33N 51°21' E 004°17'6 6.4
2014-Sep-09 05:33N 51°22' E 004°07'6 6.2
2014-Sep-09 04:33N 51°23' E 003°57'9 8.7
2014-Sep-09 03:33N 51°23' E 003°43'1010.2
2014-Sep-09 02:33N 51°29' E 003°30'1110.8
2014-Sep-09 01:33N 51°38' E 003°21'10 9.9
2014-Sep-09 00:33N 51°45' E 003°10'8 8.4
2014-Sep-08 23:33N 51°46' E 002°56'4410.8
2014-Sep-08 19:31N 52°23' E 002°17'1212.7
2014-Sep-08 18:33N 52°33' E 002°07'  
Track history (hours):
 
Tides and Currents Weather Stations Pressure Air Temp Water Temp Dewpoint Dewpoint Depression Visibility Wind Speed Wind Dir Waves Ship Positions

LS Concorde

Last reported at 2014-Sep-18 18:33 UTC. Time now 2014-Sep-18 19:45 UTC.
Position N 54°35' E 010°51'.

Length 99 m; draft 6 m.

Type: Tanker. MMSI: 236329000.

Date/timePositionNaut miles runAvg speedWind from/ knotsBaromVisibWave heightAir tempDewpointWater temp
2014-Sep-18 18:33N 54°35' E 010°51'1312.6
2014-Sep-18 17:33N 54°35' E 011°13'1312.7
2014-Sep-18 16:33N 54°30' E 011°33'1312.6
2014-Sep-18 15:33N 54°26' E 011°54'1111.2
2014-Sep-18 14:33N 54°31' E 012°12'1212.1
2014-Sep-18 13:33N 54°41' E 012°24'1312.7
2014-Sep-18 12:33N 54°48' E 012°43'1212.6
2014-Sep-18 11:33N 54°52' E 013°03'1312.9
2014-Sep-18 10:33N 54°56' E 013°25'1312.6
2014-Sep-18 09:33N 55°01' E 013°45'1212.4
2014-Sep-18 08:33N 55°05' E 014°05'1212.4
2014-Sep-18 07:33N 55°15' E 014°19'1312.8
2014-Sep-18 06:33N 55°25' E 014°33'1212.4
2014-Sep-18 05:33N 55°31' E 014°51'1212.1
2014-Sep-18 04:33N 55°37' E 015°10'1212.1
2014-Sep-18 03:33N 55°43' E 015°29'1312.6
2014-Sep-18 02:33N 55°50' E 015°48'1312.9
2014-Sep-18 01:33N 55°56' E 016°08'3112.5
2014-Sep-17 23:04N 56°13' E 016°54'1012.5
2014-Sep-17 22:15N 56°19' E 017°09'912.6
2014-Sep-17 21:33N 56°24' E 017°22'1312.5
2014-Sep-17 20:33N 56°32' E 017°40'1312.5
2014-Sep-17 19:29N 56°40' E 017°59'1712.7
2014-Sep-17 18:08N 56°51' E 018°24'712.8
2014-Sep-17 17:33N 56°55' E 018°35'1312.7
2014-Sep-17 16:34N 57°03' E 018°53'1812.5
2014-Sep-17 15:08N 57°14' E 019°20'130 2.6
2014-Sep-15 14:05N 57°28' E 023°19'612.0
2014-Sep-15 13:32N 57°32' E 023°10'14110.0
2014-Sep-14 23:28N 56°59' E 018°57'1111.4
2014-Sep-14 22:32N 56°52' E 018°42'9810.9
2014-Sep-14 13:32N 55°54' E 016°18'4210.6
2014-Sep-14 09:33N 55°34' E 015°12'10 9.8
2014-Sep-14 08:33N 55°29' E 014°57'9 8.8
2014-Sep-14 07:33N 55°25' E 014°43'9 8.9
2014-Sep-14 06:33N 55°19' E 014°32'9 9.3
2014-Sep-14 05:33N 55°11' E 014°22'19 9.6
2014-Sep-14 03:33N 55°11' E 013°49'2311.0
2014-Sep-14 01:30N 55°13' E 013°09'26 6.5
2014-Sep-13 21:33N 55°38' E 013°01'0 0.1
2014-Sep-13 20:29N 55°38' E 013°01'0 0.0
2014-Sep-13 19:32N 55°38' E 013°01'0 0.0
2014-Sep-13 18:29N 55°38' E 013°01'0 0.0
2014-Sep-13 17:32N 55°38' E 013°01'0 0.0
2014-Sep-13 16:29N 55°38' E 013°01'0 0.0
2014-Sep-13 15:32N 55°38' E 013°01'0 0.0
2014-Sep-13 14:33N 55°38' E 013°01'0 0.0
2014-Sep-13 13:33N 55°38' E 013°01'0 0.0
2014-Sep-13 12:33N 55°38' E 013°01'0 0.0
2014-Sep-13 11:33N 55°38' E 013°01'0 0.0
2014-Sep-13 10:33N 55°38' E 013°01'0 0.0
2014-Sep-13 09:33N 55°38' E 013°01'0 0.0
2014-Sep-13 08:33N 55°38' E 013°01'0 0.0
2014-Sep-13 07:33N 55°38' E 013°01'0 0.0
2014-Sep-13 06:33N 55°38' E 013°01'0 0.0
2014-Sep-13 05:33N 55°38' E 013°01'0 0.3
2014-Sep-13 04:33N 55°38' E 013°01'4 3.8
2014-Sep-13 03:33N 55°41' E 012°57'0 0.0
2014-Sep-13 02:33N 55°41' E 012°57'0 0.0
2014-Sep-13 01:33N 55°41' E 012°57'0 0.0
2014-Sep-13 00:33N 55°41' E 012°57'0 0.0
2014-Sep-12 23:34N 55°41' E 012°57'0 0.0
2014-Sep-12 22:33N 55°41' E 012°57'0 0.0
2014-Sep-12 21:34N 55°41' E 012°57'0 0.1
2014-Sep-12 20:33N 55°41' E 012°57'1110.8
2014-Sep-12 19:33N 55°50' E 012°46'1212.4
2014-Sep-12 18:33N 56°02' E 012°39'1010.2
2014-Sep-12 17:33N 56°09' E 012°26'8 7.9
2014-Sep-12 16:33N 56°13' E 012°14'8 7.8
2014-Sep-12 15:33N 56°18' E 012°03'8 7.7
2014-Sep-12 14:33N 56°25' E 011°60'1010.2
2014-Sep-12 13:33N 56°35' E 011°56'2311.6
2014-Sep-12 11:33N 56°57' E 011°44'1211.6
2014-Sep-12 10:33N 57°08' E 011°37'1212.2
2014-Sep-12 09:33N 57°20' E 011°29'1312.3
2014-Sep-12 08:32N 57°30' E 011°16'1212.6
2014-Sep-12 07:33N 57°39' E 010°60'1212.2
2014-Sep-12 06:33N 57°48' E 010°44'1212.4
2014-Sep-12 05:33N 57°47' E 010°21'1413.1
2014-Sep-12 04:31N 57°42' E 009°57'1213.1
2014-Sep-12 03:33N 57°38' E 009°35'7512.5
2014-Sep-11 21:33N 56°55' E 007°40'1312.8
2014-Sep-11 20:32N 56°44' E 007°28'1312.9
2014-Sep-11 19:33N 56°33' E 007°17'17512.5
2014-Sep-11 05:33N 53°59' E 004°50'2311.5
2014-Sep-11 03:31N 53°36' E 004°50'9 9.6
2014-Sep-11 02:33N 53°27' E 004°44'2110.3
2014-Sep-11 00:33N 53°08' E 004°29'1010.3
2014-Sep-10 23:33N 52°60' E 004°20'1010.2
2014-Sep-10 22:33N 52°50' E 004°14'1010.1
2014-Sep-10 21:33N 52°43' E 004°02'1010.2
2014-Sep-10 20:33N 52°37' E 003°48'1110.3
2014-Sep-10 19:31N 52°28' E 003°38'5111.5
2014-Sep-10 15:03N 51°38' E 003°22'713.9
2014-Sep-10 14:33N 51°31' E 003°26'1010.4
2014-Sep-10 13:34N 51°26' E 003°41'9 8.9
2014-Sep-10 12:33N 51°21' E 003°52'7 7.0
2014-Sep-10 11:34N 51°24' E 004°02'7 7.4
2014-Sep-10 10:34N 51°22' E 004°13'2 2.5
2014-Sep-10 09:33N 51°21' E 004°17'0 0.0
2014-Sep-10 08:34N 51°21' E 004°17'2 1.9
2014-Sep-10 07:33N 51°19' E 004°19'4 4.0
2014-Sep-10 06:31N 51°15' E 004°22'0 0.0
2014-Sep-10 05:31N 51°15' E 004°22'0 0.0
2014-Sep-10 04:31N 51°15' E 004°22'0 0.0
2014-Sep-10 03:28N 51°15' E 004°22'0 0.0
2014-Sep-10 02:31N 51°15' E 004°22'0 0.0
2014-Sep-10 01:28N 51°15' E 004°22'0 0.0
2014-Sep-10 00:31N 51°15' E 004°22'0 0.0
2014-Sep-09 23:31N 51°15' E 004°22'0 0.0
2014-Sep-09 22:31N 51°15' E 004°22'0 0.0
2014-Sep-09 21:31N 51°15' E 004°22'0 0.0
2014-Sep-09 20:31N 51°15' E 004°22'0 0.0
2014-Sep-09 19:31N 51°15' E 004°22'0 0.0
2014-Sep-09 18:31N 51°15' E 004°22'0 0.0
2014-Sep-09 17:31N 51°15' E 004°22'0 0.0
2014-Sep-09 16:31N 51°15' E 004°22'0 0.0
2014-Sep-09 15:13N 51°15' E 004°22'0 0.0
2014-Sep-09 14:31N 51°15' E 004°22'0 0.0
2014-Sep-09 13:31N 51°15' E 004°22'0 0.0
2014-Sep-09 12:31N 51°15' E 004°22'0 0.0
2014-Sep-09 11:31N 51°15' E 004°22'0 0.0
2014-Sep-09 10:31N 51°15' E 004°22'0 0.0
2014-Sep-09 09:31N 51°15' E 004°22'0 0.1
2014-Sep-09 08:33N 51°15' E 004°22'6 6.1
2014-Sep-09 07:33N 51°21' E 004°17'0 0.2
2014-Sep-09 06:33N 51°21' E 004°17'6 6.4
2014-Sep-09 05:33N 51°22' E 004°07'6 6.2
2014-Sep-09 04:33N 51°23' E 003°57'9 8.7
2014-Sep-09 03:33N 51°23' E 003°43'1010.2
2014-Sep-09 02:33N 51°29' E 003°30'1110.8
2014-Sep-09 01:33N 51°38' E 003°21'10 9.9
2014-Sep-09 00:33N 51°45' E 003°10'8 8.4
2014-Sep-08 23:33N 51°46' E 002°56'4410.8
2014-Sep-08 19:31N 52°23' E 002°17'1212.7
2014-Sep-08 18:33N 52°33' E 002°07'  

Dump ship's entire track history